Time;durP1;ratioP1;P1;durP2;ratioP2;P2;SDS_P1;SDS_P2;PMS_P1;PMS_P2;Temp;Humidity;BMP_temperature;BMP_pressure;BME280_temperature;BME280_humidity;BME280_pressure;Samples;Min_cycle;Max_cycle;Signal;HPM_P1;HPM_P2
2022/07/27 00:03:06;;;;;;;6.50;4.10;;;;;;;;;;10215741;29;20061;-73
2022/07/27 00:08:18;;;;;;;7.55;3.85;;;;;;;;;;10212523;29;20277;-73
2022/07/27 00:13:23;;;;;;;9.95;4.07;;;;;;;;;;10216139;29;20051;-72
2022/07/27 00:18:28;;;;;;;6.88;3.45;;;;;;;;;;10225601;29;20035;-72
2022/07/27 00:23:37;;;;;;;7.40;3.70;;;;;;;;;;10218458;29;20074;-74
2022/07/27 00:28:42;;;;;;;6.80;3.47;;;;;;;;;;10213715;29;20131;-73
2022/07/27 00:33:46;;;;;;;5.88;3.88;;;;;;;;;;10218519;29;20090;-74
2022/07/27 00:38:59;;;;;;;8.18;3.80;;;;;;;;;;10183523;29;20114;-73
2022/07/27 00:44:11;;;;;;;7.75;3.70;;;;;;;;;;10196575;29;20070;-72
2022/07/27 00:49:17;;;;;;;4.88;3.22;;;;;;;;;;10193382;29;20469;-73
2022/07/27 00:54:30;;;;;;;5.65;3.63;;;;;;;;;;10213719;29;20043;-73
2022/07/27 00:59:34;;;;;;;4.80;3.08;;;;;;;;;;10209371;29;20040;-73
2022/07/27 01:04:41;;;;;;;6.28;2.80;;;;;;;;;;10212334;29;20053;-73
2022/07/27 01:10:00;;;;;;;3.22;2.58;;;;;;;;;;10219288;28;20043;-73
2022/07/27 01:15:15;;;;;;;5.37;2.83;;;;;;;;;;10196245;29;20039;-73
2022/07/27 01:20:21;;;;;;;5.80;2.53;;;;;;;;;;10215523;29;20071;-72
2022/07/27 01:25:31;;;;;;;4.97;2.65;;;;;;;;;;10210499;29;20070;-73
2022/07/27 01:30:47;;;;;;;5.25;2.60;;;;;;;;;;10212808;29;20164;-73
2022/07/27 01:35:55;;;;;;;4.03;2.70;;;;;;;;;;10210207;29;20052;-73
2022/07/27 01:41:05;;;;;;;4.07;2.50;;;;;;;;;;10194078;29;20035;-73
2022/07/27 01:46:11;;;;;;;4.25;2.55;;;;;;;;;;10203897;29;20051;-72
2022/07/27 01:51:15;;;;;;;;;;;;;;;;;;10209761;28;20039;-73
2022/07/27 01:56:24;;;;;;;4.68;2.75;;;;;;;;;;10222494;28;19926;-73
2022/07/27 02:01:29;;;;;;;6.95;2.60;;;;;;;;;;10210280;29;20119;-73
2022/07/27 02:06:33;;;;;;;4.32;2.83;;;;;;;;;;10209975;29;20044;-73
2022/07/27 02:17:04;;;;;;;4.47;2.72;;;;;;;;;;10211643;29;20055;-73
2022/07/27 02:22:15;;;;;;;3.47;2.53;;;;;;;;;;10214531;29;20531;-73
2022/07/27 02:27:22;;;;;;;4.00;2.78;;;;;;;;;;10211883;29;20043;-73
2022/07/27 02:32:34;;;;;;;6.00;2.50;;;;;;;;;;10212551;29;20059;-73
2022/07/27 02:37:39;;;;;;;6.70;2.53;;;;;;;;;;10216456;29;20704;-75
2022/07/27 02:42:45;;;;;;;3.70;2.40;;;;;;;;;;10195095;29;20409;-73
2022/07/27 02:47:50;;;;;;;3.47;2.33;;;;;;;;;;10188324;29;20428;-73
2022/07/27 02:52:57;;;;;;;4.53;2.50;;;;;;;;;;10205289;29;20040;-73
2022/07/27 02:58:03;;;;;;;5.32;2.60;;;;;;;;;;10216502;29;20043;-73
2022/07/27 03:03:08;;;;;;;9.85;5.65;;;;;;;;;;10216259;29;20035;-73
2022/07/27 03:08:13;;;;;;;18.30;9.02;;;;;;;;;;10220760;29;20126;-74
2022/07/27 03:13:22;;;;;;;6.47;2.58;;;;;;;;;;10223820;29;20150;-73
2022/07/27 03:18:29;;;;;;;5.28;2.90;;;;;;;;;;10217488;29;20058;-73
2022/07/27 03:23:37;;;;;;;12.57;6.50;;;;;;;;;;10200476;29;20540;-73
2022/07/27 03:28:48;;;;;;;4.97;2.30;;;;;;;;;;10204199;29;20154;-73
2022/07/27 03:33:57;;;;;;;8.00;2.70;;;;;;;;;;10197076;28;20036;-73
2022/07/27 03:39:06;;;;;;;5.53;2.88;;;;;;;;;;10193608;29;20039;-73
2022/07/27 03:44:15;;;;;;;7.57;3.38;;;;;;;;;;10216293;29;20814;-72
2022/07/27 03:49:20;;;;;;;9.65;3.63;;;;;;;;;;10218259;29;20126;-73
2022/07/27 03:54:31;;;;;;;4.47;2.97;;;;;;;;;;10215033;29;20042;-73
2022/07/27 03:59:37;;;;;;;7.05;3.28;;;;;;;;;;10200379;29;20064;-72
2022/07/27 04:04:43;;;;;;;6.72;3.00;;;;;;;;;;10219023;28;20133;-73
2022/07/27 04:09:48;;;;;;;3.42;2.45;;;;;;;;;;10203068;29;20335;-72
2022/07/27 04:14:54;;;;;;;4.90;3.10;;;;;;;;;;10222485;29;20074;-73
2022/07/27 04:20:01;;;;;;;5.75;2.80;;;;;;;;;;10215849;29;20047;-73
2022/07/27 04:25:04;;;;;;;6.30;2.90;;;;;;;;;;10213781;29;20457;-73
2022/07/27 04:30:15;;;;;;;7.28;3.25;;;;;;;;;;10218184;29;20372;-73
2022/07/27 04:35:18;;;;;;;5.28;2.78;;;;;;;;;;10209732;29;20366;-73
2022/07/27 04:40:32;;;;;;;6.70;2.92;;;;;;;;;;10199189;29;20053;-73
2022/07/27 04:45:43;;;;;;;6.68;2.70;;;;;;;;;;10214507;28;20064;-73
2022/07/27 04:50:52;;;;;;;5.22;2.20;;;;;;;;;;10201381;29;20122;-73
2022/07/27 04:55:57;;;;;;;3.60;2.58;;;;;;;;;;10215790;29;20046;-73
2022/07/27 05:01:07;;;;;;;4.63;2.45;;;;;;;;;;10217229;29;20219;-73
2022/07/27 05:06:13;;;;;;;2.92;2.42;;;;;;;;;;10217664;29;20070;-73
2022/07/27 05:11:17;;;;;;;4.90;2.38;;;;;;;;;;10197280;29;20202;-74
2022/07/27 05:16:23;;;;;;;4.32;2.90;;;;;;;;;;10210082;29;21132;-74
2022/07/27 05:21:34;;;;;;;3.58;2.58;;;;;;;;;;10198018;29;20039;-73
2022/07/27 05:26:40;;;;;;;6.05;2.53;;;;;;;;;;10207239;29;20094;-73
2022/07/27 05:31:49;;;;;;;6.47;2.75;;;;;;;;;;10211932;28;20638;-72
2022/07/27 05:36:55;;;;;;;7.18;3.08;;;;;;;;;;10193774;29;20044;-73
2022/07/27 05:42:04;;;;;;;9.90;2.72;;;;;;;;;;10208298;29;20421;-73
2022/07/27 05:47:16;;;;;;;5.35;2.28;;;;;;;;;;10190833;29;20070;-71
2022/07/27 05:52:22;;;;;;;6.78;2.30;;;;;;;;;;10225010;29;20138;-74
2022/07/27 05:57:31;;;;;;;4.38;2.53;;;;;;;;;;10213678;28;20862;-75
2022/07/27 06:02:40;;;;;;;5.85;2.60;;;;;;;;;;10214415;29;20057;-73
2022/07/27 06:08:02;;;;;;;4.53;2.25;;;;;;;;;;10205629;29;20494;-73
2022/07/27 06:13:12;;;;;;;5.57;2.92;;;;;;;;;;10212133;29;20043;-73
2022/07/27 06:18:21;;;;;;;5.32;2.97;;;;;;;;;;10208614;29;20050;-74
2022/07/27 06:23:26;;;;;;;6.90;2.72;;;;;;;;;;10206100;29;20083;-75
2022/07/27 07:45:41;;;;;;;6.85;3.00;;;;;;;;;;10232520;29;20051;-94
2022/07/27 10:13:55;;;;;;;4.25;2.40;;;;;;;;;;10254411;28;20056;-96
2022/07/27 10:19:50;;;;;;;4.63;2.13;;;;;;;;;;10247471;28;20043;-94
2022/07/27 10:53:35;;;;;;;5.73;2.00;;;;;;;;;;13093327;22;2064982;-95
2022/07/27 10:59:01;;;;;;;2.72;2.20;;;;;;;;;;13195805;22;20062;-96
2022/07/27 11:04:11;;;;;;;4.95;2.13;;;;;;;;;;13195833;22;20006;-96
2022/07/27 11:09:42;;;;;;;4.75;1.80;;;;;;;;;;13191705;22;20136;-92
2022/07/27 11:15:07;;;;;;;2.47;2.10;;;;;;;;;;13189749;22;20014;-91
2022/07/27 11:20:12;;;;;;;5.15;2.10;;;;;;;;;;13188335;22;20063;-90
2022/07/27 11:25:18;;;;;;;3.80;1.95;;;;;;;;;;13197265;22;20044;-93
2022/07/27 11:35:56;;;;;;;2.73;2.07;;;;;;;;;;13206655;22;20021;-92
2022/07/27 11:41:27;;;;;;;4.40;2.70;;;;;;;;;;13151515;22;20014;-92
2022/07/27 11:47:14;;;;;;;7.53;2.30;;;;;;;;;;13205389;22;20033;-93
2022/07/27 12:10:03;;;;;;;4.43;2.22;;;;;;;;;;13182606;22;20022;-92
2022/07/27 13:13:26;;;;;;;3.95;2.20;;;;;;;;;;13156410;22;20025;-93
2022/07/27 13:18:41;;;;;;;5.07;2.63;;;;;;;;;;13177120;22;20010;-90
2022/07/27 13:24:20;;;;;;;6.55;2.50;;;;;;;;;;13220812;22;20014;-92
2022/07/27 13:40:58;;;;;;;5.57;2.70;;;;;;;;;;13192445;22;20014;-92
2022/07/27 13:46:44;;;;;;;4.53;3.28;;;;;;;;;;13181478;22;20025;-94
2022/07/27 13:51:59;;;;;;;5.05;2.70;;;;;;;;;;13153907;22;20093;-93
2022/07/27 14:03:20;;;;;;;3.45;2.25;;;;;;;;;;13180100;22;20040;-92
2022/07/27 14:08:56;;;;;;;4.80;2.20;;;;;;;;;;13178613;22;20018;-92
2022/07/27 14:32:10;;;;;;;3.70;2.03;;;;;;;;;;13150289;22;20085;-91
2022/07/27 14:37:20;;;;;;;4.40;2.38;;;;;;;;;;13125009;22;20452;-91
2022/07/27 14:42:56;;;;;;;4.43;2.20;;;;;;;;;;13155280;22;20038;-92
2022/07/27 14:48:08;;;;;;;3.33;2.17;;;;;;;;;;13179599;22;20033;-91
2022/07/27 14:59:20;;;;;;;5.13;2.10;;;;;;;;;;13178014;22;20070;-89
2022/07/27 15:04:37;;;;;;;2.95;2.00;;;;;;;;;;13145473;22;20018;-91
2022/07/27 15:09:48;;;;;;;4.25;2.33;;;;;;;;;;13174337;22;20019;-90
2022/07/27 15:15:01;;;;;;;4.40;1.92;;;;;;;;;;13145561;22;20410;-92
2022/07/27 15:36:24;;;;;;;2.70;2.10;;;;;;;;;;13149280;22;20026;-89
2022/07/27 15:41:46;;;;;;;3.58;2.40;;;;;;;;;;13201548;22;20022;-89
2022/07/27 16:04:15;;;;;;;4.85;2.35;;;;;;;;;;13234804;22;20085;-92
2022/07/27 16:09:25;;;;;;;3.90;2.30;;;;;;;;;;13166667;22;20018;-92
2022/07/27 16:20:20;;;;;;;7.35;2.47;;;;;;;;;;13146716;22;20045;-89
2022/07/27 16:25:35;;;;;;;3.03;2.15;;;;;;;;;;13149271;22;20041;-87
2022/07/27 16:31:09;;;;;;;3.10;2.30;;;;;;;;;;13178153;22;20329;-90
2022/07/27 16:36:18;;;;;;;2.17;1.90;;;;;;;;;;13122615;22;20019;-90
2022/07/27 16:41:27;;;;;;;4.97;2.30;;;;;;;;;;13146231;22;20068;-88
2022/07/27 16:51:59;;;;;;;5.03;2.15;;;;;;;;;;13146479;22;20011;-89
2022/07/27 16:57:06;;;;;;;3.88;2.30;;;;;;;;;;13150236;22;20544;-87
2022/07/27 17:02:13;;;;;;;5.07;2.30;;;;;;;;;;13124242;22;20383;-89
2022/07/27 17:07:22;;;;;;;3.78;2.00;;;;;;;;;;13150406;22;20018;-89
2022/07/27 17:12:28;;;;;;;4.20;2.10;;;;;;;;;;13138815;22;20018;-89
2022/07/27 17:17:43;;;;;;;4.47;2.10;;;;;;;;;;13165329;22;20257;-89
2022/07/27 17:22:49;;;;;;;2.95;2.20;;;;;;;;;;13171426;22;20026;-88
2022/07/27 17:27:54;;;;;;;3.47;2.10;;;;;;;;;;13206561;22;20019;-88
2022/07/27 17:33:03;;;;;;;3.38;2.13;;;;;;;;;;13248396;22;19998;-88
2022/07/27 17:38:08;;;;;;;3.05;2.10;;;;;;;;;;13199185;22;20070;-88
2022/07/27 17:43:17;;;;;;;5.20;3.40;;;;;;;;;;13227671;22;20011;-88
2022/07/27 17:48:30;;;;;;;8.25;3.10;;;;;;;;;;13154658;22;20045;-88
2022/07/27 17:54:04;;;;;;;8.60;5.38;;;;;;;;;;13157535;22;20014;-88
2022/07/27 17:59:09;;;;;;;5.25;2.08;;;;;;;;;;13197651;22;20044;-89
2022/07/27 18:04:47;;;;;;;4.72;2.42;;;;;;;;;;13126278;22;20134;-88
2022/07/27 18:09:52;;;;;;;11.38;5.53;;;;;;;;;;13144788;22;20430;-87
2022/07/27 18:20:48;;;;;;;6.13;3.42;;;;;;;;;;13145542;22;20018;-88
2022/07/27 18:25:58;;;;;;;10.00;4.85;;;;;;;;;;13119928;22;20514;-88
2022/07/27 18:31:13;;;;;;;3.95;2.90;;;;;;;;;;13172872;22;20018;-88
2022/07/27 18:36:34;;;;;;;4.72;2.58;;;;;;;;;;13194273;22;20033;-87
2022/07/27 18:41:41;;;;;;;5.97;3.67;;;;;;;;;;13194197;22;20065;-87
2022/07/27 18:46:50;;;;;;;6.55;2.75;;;;;;;;;;13142156;22;20582;-88
2022/07/27 18:52:00;;;;;;;6.68;3.05;;;;;;;;;;13143245;22;20022;-87
2022/07/27 18:57:05;;;;;;;6.78;3.15;;;;;;;;;;13192470;22;20345;-88
2022/07/27 19:02:29;;;;;;;5.20;2.80;;;;;;;;;;13172385;22;20021;-87
2022/07/27 19:07:44;;;;;;;8.05;3.65;;;;;;;;;;13147853;22;20022;-85
2022/07/27 19:13:01;;;;;;;6.60;3.08;;;;;;;;;;13175727;22;20390;-88
2022/07/27 19:18:18;;;;;;;4.43;3.00;;;;;;;;;;13195908;22;20441;-89
2022/07/27 19:23:27;;;;;;;4.47;2.83;;;;;;;;;;13147563;22;20444;-89
2022/07/27 19:28:40;;;;;;;6.90;3.60;;;;;;;;;;13144670;22;20456;-89
2022/07/27 19:33:49;;;;;;;11.07;6.15;;;;;;;;;;13174141;22;20026;-87
2022/07/27 19:39:00;;;;;;;6.30;3.92;;;;;;;;;;13174821;22;20353;-88
2022/07/27 19:44:12;;;;;;;5.82;4.25;;;;;;;;;;13149269;22;20026;-88
2022/07/27 19:49:30;;;;;;;6.80;3.53;;;;;;;;;;13177427;22;20093;-87
2022/07/27 19:54:39;;;;;;;6.00;3.30;;;;;;;;;;13168337;22;20279;-87
2022/07/27 19:59:43;;;;;;;6.07;3.45;;;;;;;;;;13144796;22;20029;-81
2022/07/27 20:05:00;;;;;;;5.63;3.50;;;;;;;;;;13141000;22;20090;-75
2022/07/27 20:10:05;;;;;;;6.35;3.75;;;;;;;;;;13139229;22;20026;-76
2022/07/27 20:15:10;;;;;;;6.53;3.42;;;;;;;;;;13166079;22;20010;-74
2022/07/27 20:20:18;;;;;;;5.55;3.10;;;;;;;;;;13138329;22;20018;-75
2022/07/27 20:25:25;;;;;;;5.00;3.55;;;;;;;;;;13138585;22;20071;-75
2022/07/27 20:30:31;;;;;;;6.38;3.30;;;;;;;;;;13112633;22;20022;-75
2022/07/27 20:35:39;;;;;;;5.32;3.30;;;;;;;;;;13138058;22;20053;-76
2022/07/27 20:41:00;;;;;;;6.65;3.45;;;;;;;;;;13188666;22;20469;-81
2022/07/27 20:46:14;;;;;;;6.45;3.65;;;;;;;;;;13139903;22;20046;-86
2022/07/27 20:51:22;;;;;;;9.20;3.63;;;;;;;;;;13139113;22;20045;-85
2022/07/27 20:56:37;;;;;;;6.68;3.50;;;;;;;;;;13191427;22;20456;-85
2022/07/27 21:01:48;;;;;;;4.88;3.95;;;;;;;;;;13169005;22;20018;-85
2022/07/27 21:06:54;;;;;;;6.30;4.03;;;;;;;;;;13188736;22;20033;-86
2022/07/27 21:12:10;;;;;;;7.93;4.57;;;;;;;;;;13169079;22;20022;-85
2022/07/27 21:17:15;;;;;;;5.63;3.83;;;;;;;;;;13167444;22;20094;-84
2022/07/27 21:22:25;;;;;;;6.80;4.40;;;;;;;;;;13150361;22;20022;-83
2022/07/27 21:27:36;;;;;;;9.55;4.25;;;;;;;;;;13170580;22;20042;-83
2022/07/27 21:32:43;;;;;;;8.05;4.15;;;;;;;;;;13140170;22;20333;-84
2022/07/27 21:37:57;;;;;;;6.80;3.78;;;;;;;;;;13168021;22;20034;-85
2022/07/27 21:43:07;;;;;;;6.53;4.28;;;;;;;;;;13169042;22;20082;-83
2022/07/27 21:48:14;;;;;;;8.13;3.45;;;;;;;;;;13115118;22;20038;-84
2022/07/27 21:53:27;;;;;;;5.57;3.63;;;;;;;;;;13115444;22;20014;-84
2022/07/27 21:58:45;;;;;;;5.13;3.25;;;;;;;;;;13138878;22;20045;-84
2022/07/27 22:03:53;;;;;;;;;;;;;;;;;;13167952;22;20468;-84
2022/07/27 22:09:08;;;;;;;5.95;3.55;;;;;;;;;;13164775;22;19921;-84
2022/07/27 22:14:18;;;;;;;5.20;3.80;;;;;;;;;;13116928;22;20093;-84
2022/07/27 22:19:26;;;;;;;6.60;4.03;;;;;;;;;;13115749;22;20330;-85
2022/07/27 22:24:33;;;;;;;8.00;4.15;;;;;;;;;;13138091;22;20386;-83
2022/07/27 22:29:47;;;;;;;7.75;4.22;;;;;;;;;;13139256;22;20385;-84
2022/07/27 22:34:54;;;;;;;6.50;3.90;;;;;;;;;;13188367;22;20010;-84
2022/07/27 22:39:59;;;;;;;10.50;5.20;;;;;;;;;;13137741;22;20026;-84
2022/07/27 22:45:09;;;;;;;6.65;4.22;;;;;;;;;;13139963;22;20368;-85
2022/07/27 22:50:19;;;;;;;6.50;3.72;;;;;;;;;;13139578;22;20045;-84
2022/07/27 22:55:24;;;;;;;7.63;4.13;;;;;;;;;;13165099;22;20393;-84
2022/07/27 23:00:43;;;;;;;6.35;3.47;;;;;;;;;;13113050;22;20095;-86
2022/07/27 23:05:48;;;;;;;6.85;4.07;;;;;;;;;;13112495;22;20014;-84
2022/07/27 23:10:56;;;;;;;4.75;3.47;;;;;;;;;;13167277;22;20025;-83
2022/07/27 23:16:08;;;;;;;6.13;3.92;;;;;;;;;;13137726;22;20048;-83
2022/07/27 23:21:19;;;;;;;9.68;4.53;;;;;;;;;;13113179;22;20029;-84
2022/07/27 23:26:28;;;;;;;6.13;4.18;;;;;;;;;;13144780;22;20018;-84
2022/07/27 23:31:40;;;;;;;7.57;4.53;;;;;;;;;;13138731;22;20042;-84
2022/07/27 23:36:54;;;;;;;7.00;4.03;;;;;;;;;;13140348;22;20431;-84
2022/07/27 23:42:18;;;;;;;7.30;4.22;;;;;;;;;;13138545;22;20060;-83
2022/07/27 23:47:33;;;;;;;7.13;4.18;;;;;;;;;;13167759;22;20068;-84
2022/07/27 23:52:48;;;;;;;7.75;4.38;;;;;;;;;;13169643;22;20018;-85
2022/07/27 23:57:54;;;;;;;6.75;4.35;;;;;;;;;;13141198;22;20022;-85
